Latest Weather Observations for Dwellingup

IDW60801

Issued at 6:05 pm WST Monday 28 July 2014 (issued every 30 minutes, with the page automatically refreshed every 10 minutes)

About weather observations | Map of weather stations | Latest weather observations for WA | Other Formats
Station Details ID: 009538 Name: DWELLINGUP Lat: -32.71 Lon: 116.06 Height: 267.0 m
Data from the previous 72 hours. | See also: Recent months at Dwellingup
Date/Time
WST
Temp
°C
App
Temp
°C
Dew
Point
Rel
Hum
%
Delta-T
°C
Wind Press
QNH
hPa
Press
MSL
hPa
Rain
since 9 am
mm
Dir
 
Spd
km/h
Gust
km/h
Spd
kts
Gust
kts
28/06:00pm 12.3 - 11.2 93 0.6 - - - - - 1022.4 1022.7 4.8
28/05:30pm 12.3 - 11.2 93 0.6 - - - - - 1022.1 - 4.4
28/05:00pm 12.3 - 11.0 92 0.7 - - - - - 1022.0 1022.2 4.0
28/04:30pm 12.9 - 11.6 92 0.7 - - - - - 1021.8 - 3.2
28/04:00pm 13.0 - 11.4 90 0.9 - - - - - 1021.6 1021.8 2.8
28/03:30pm 13.4 - 11.5 88 1.0 - - - - - 1021.3 - 2.0
28/03:00pm 13.7 - 11.6 87 1.1 - - - - - 1021.1 1021.3 2.0
28/02:30pm 13.9 - 11.9 88 1.1 - - - - - 1021.2 - 2.0
28/02:00pm 13.2 - 10.9 86 1.2 - - - - - 1021.5 1021.7 1.8
28/01:30pm 15.3 - 9.4 68 3.1 - - - - - 1021.6 - 1.2
28/01:00pm 15.2 - 11.0 76 2.3 - - - - - 1021.9 1022.1 1.2
28/12:30pm 14.0 - 10.2 78 2.0 - - - - - 1022.3 - 1.2
28/12:00pm 16.0 - 9.7 66 3.3 - - - - - 1022.4 1022.7 1.2
28/11:30am 15.4 - 11.2 76 2.3 - - - - - 1022.7 - 1.2
28/11:00am 13.8 - 11.0 83 1.5 - - - - - 1022.9 1023.2 1.2
28/10:30am 13.9 - 11.4 85 1.3 - - - - - 1022.8 - 1.0
28/10:00am 12.6 - 11.3 92 0.7 - - - - - 1022.8 1023.1 1.0
28/09:30am 12.2 - 10.9 92 0.7 - - - - - 1022.8 - 0.4
28/09:00am 12.2 - 10.9 92 0.7 - - - - - 1022.5 1022.8 4.4
28/08:30am 12.3 - 10.9 91 0.7 - - - - - 1022.2 - 4.0
28/08:00am 11.8 - 10.5 92 0.7 - - - - - 1021.8 1022.0 3.4
28/07:30am 11.5 - 10.2 92 0.7 - - - - - 1021.4 - 3.4
28/07:00am 11.6 - 10.3 92 0.7 - - - - - 1021.2 1021.4 3.4
28/06:30am 11.3 - 10.0 92 0.7 - - - - - 1021.0 - 2.6
28/06:00am 11.4 - 10.1 92 0.7 - - - - - 1021.0 1021.2 2.6
28/05:30am 11.4 - 10.3 93 0.6 - - - - - 1020.8 - 2.6
28/05:00am 11.5 - 10.4 93 0.6 - - - - - 1020.8 1021.0 2.4
28/04:30am 11.5 - 10.2 92 0.7 - - - - - 1020.8 - 2.4
28/04:00am 11.5 - 10.2 92 0.7 - - - - - 1021.0 1021.2 2.4
28/03:30am 11.4 - 9.8 90 0.8 - - - - - 1021.0 - 2.0
28/03:00am 11.4 - 9.7 89 0.9 - - - - - 1021.1 1021.3 1.8
28/02:30am 11.7 - 9.8 88 1.0 - - - - - 1021.1 - 1.0
28/02:00am 11.4 - 10.0 91 0.7 - - - - - 1021.2 1021.4 1.0
28/01:30am 11.2 - 9.8 91 0.7 - - - - - 1021.2 - 1.0
28/01:00am 10.9 - 9.5 91 0.7 - - - - - 1021.4 1021.6 1.0
28/12:30am 11.4 - 10.0 91 0.7 - - - - - 1021.5 - 1.0
28/12:00am 11.3 - 10.0 92 0.7 - - - - - 1021.6 1021.8 1.0
 
Date/Time
WST
Temp
°C
App
Temp
°C
Dew
Point
Rel
Hum
%
Delta-T
°C
Wind Press
QNH
hPa
Press
MSL
hPa
Rain
since 9 am
mm
Dir
 
Spd
km/h
Gust
km/h
Spd
kts
Gust
kts
27/11:30pm 11.4 - 10.1 92 0.7 - - - - - 1021.8 - 1.0
27/11:00pm 11.5 - 10.2 92 0.7 - - - - - 1022.1 1022.3 1.0
27/10:30pm 11.7 - 10.3 91 0.7 - - - - - 1022.1 - 0.8
27/10:00pm 11.6 - 10.0 90 0.8 - - - - - 1022.2 1022.5 0.6
27/09:30pm 11.6 - 9.7 88 1.0 - - - - - 1022.3 - 0.6
27/09:00pm 11.9 - 8.9 82 1.5 - - - - - 1022.0 1022.2 0.2
27/08:30pm 10.8 - 8.6 86 1.1 - - - - - 1021.7 - 0.2
27/08:00pm 11.5 - 9.1 85 1.2 - - - - - 1021.7 1021.9 0.2
27/07:30pm 11.8 - 9.4 85 1.2 - - - - - 1021.7 - 0.2
27/07:00pm 12.0 - 9.4 84 1.3 - - - - - 1021.4 1021.6 0.2
27/06:30pm 12.2 - 9.6 84 1.3 - - - - - 1021.1 - 0.2
27/06:00pm 12.2 - 9.9 86 1.2 - - - - - 1020.8 1021.0 0.2
27/05:30pm 12.6 - 10.5 87 1.1 - - - - - 1020.7 - 0.2
27/05:00pm 12.8 - 10.5 86 1.2 - - - - - 1020.5 1020.7 0.2
27/04:30pm 12.6 - 10.7 88 1.0 - - - - - 1020.6 - 0.2
27/04:00pm 13.3 - 10.5 83 1.5 - - - - - 1020.3 1020.5 0.2
27/03:30pm 15.3 - 9.4 68 3.1 - - - - - 1019.8 - 0.2
27/03:00pm 15.0 - 9.8 71 2.7 - - - - - 1019.7 1019.9 0.2
27/02:30pm 15.8 - 9.7 67 3.2 - - - - - 1019.5 - 0.2
27/02:00pm 15.1 - 10.7 75 2.4 - - - - - 1019.4 1019.7 0.2
27/01:30pm 15.2 - 10.4 73 2.6 - - - - - 1019.7 - 0.2
27/01:00pm 13.9 - 11.4 85 1.3 - - - - - 1020.1 1020.3 0.2
27/12:30pm 14.3 - 10.9 80 1.8 - - - - - 1020.3 - 0.0
27/12:00pm 14.5 - 10.5 77 2.1 - - - - - 1020.6 1020.8 0.0
27/11:30am 13.9 - 11.2 84 1.5 - - - - - 1021.0 - 0.0
27/11:00am 13.8 - 10.0 78 2.0 - - - - - 1021.1 1021.3 0.0
27/10:30am 14.3 - 10.7 79 1.9 - - - - - 1021.1 - 0.0
27/10:00am 13.3 - 11.5 89 1.0 - - - - - 1021.1 1021.3 0.0
27/09:30am 12.6 - 11.3 92 0.7 - - - - - 1021.0 - 0.0
27/09:00am 12.1 - 11.0 93 0.6 - - - - - 1020.6 1020.8 29.6
27/08:30am 11.7 - 10.6 93 0.6 - - - - - 1020.3 - 29.6
27/08:00am 11.6 - 10.7 94 0.5 - - - - - 1019.9 1020.1 29.6
27/07:30am 11.7 - 10.6 93 0.6 - - - - - 1019.4 - 29.6
27/07:00am 11.6 - 10.5 93 0.6 - - - - - 1019.0 1019.3 29.4
27/06:30am 11.7 - 10.4 92 0.7 - - - - - 1019.1 - 28.6
27/06:00am 11.5 - 9.8 89 0.9 - - - - - 1018.9 1019.1 27.0
27/05:30am 12.9 - 8.2 73 2.4 - - - - - 1018.2 - 25.2
27/05:00am 12.4 - 7.9 74 2.2 - - - - - 1018.0 1018.2 25.2
27/04:30am 12.0 - 7.7 75 2.1 - - - - - 1018.0 - 25.2
27/04:00am 11.8 - 7.5 75 2.1 - - - - - 1018.1 1018.3 25.2
27/03:30am 11.7 - 6.4 70 2.5 - - - - - 1018.3 - 25.2
27/03:00am 11.6 - 6.5 71 2.4 - - - - - 1018.3 1018.5 25.2
27/02:30am 11.6 - 6.7 72 2.4 - - - - - 1018.5 - 25.2
27/02:00am 11.6 - 6.5 71 2.4 - - - - - 1018.7 1018.9 25.2
27/01:30am 11.7 - 5.8 67 2.8 - - - - - 1018.8 - 25.2
27/01:00am 11.0 - 6.4 73 2.2 - - - - - 1018.8 1019.0 25.2
27/12:30am 11.5 - 7.0 74 2.2 - - - - - 1019.0 - 25.2
27/12:00am 11.3 - 7.6 78 1.8 - - - - - 1018.9 1019.1 25.2
 
Date/Time
WST
Temp
°C
App
Temp
°C
Dew
Point
Rel
Hum
%
Delta-T
°C
Wind Press
QNH
hPa
Press
MSL
hPa
Rain
since 9 am
mm
Dir
 
Spd
km/h
Gust
km/h
Spd
kts
Gust
kts
26/11:30pm 11.1 - 7.2 77 1.9 - - - - - 1018.8 - 25.2
26/11:00pm 11.3 - 7.6 78 1.8 - - - - - 1018.8 1019.0 25.2
26/10:30pm 11.4 - 7.3 76 2.0 - - - - - 1019.0 - 25.2
26/10:00pm 11.2 - 7.3 77 1.9 - - - - - 1019.0 1019.3 25.2
26/09:30pm 10.6 - 7.1 79 1.7 - - - - - 1018.9 - 25.2
26/09:00pm 10.8 - 7.3 79 1.7 - - - - - 1018.6 1018.8 25.2
26/08:30pm 9.4 - 7.7 89 0.8 - - - - - 1018.7 - 25.2
26/08:00pm 10.1 - 7.5 84 1.3 - - - - - 1018.6 1018.8 25.2
26/07:30pm 10.3 - 8.7 90 0.8 - - - - - 1018.5 - 25.2
26/07:00pm 9.3 - 7.7 90 0.8 - - - - - 1018.1 1018.3 25.2
26/06:30pm 9.8 - 7.9 88 0.9 - - - - - 1017.6 - 25.2
26/06:00pm 10.9 - 8.0 82 1.4 - - - - - 1017.3 1017.5 25.2
26/05:30pm 12.1 - 8.0 76 2.0 - - - - - 1017.1 - 25.2
26/05:00pm 12.7 - 8.4 75 2.2 - - - - - 1016.8 1017.0 25.2
26/04:30pm 13.3 - 8.2 71 2.6 - - - - - 1016.7 - 25.2
26/04:00pm 14.1 - 8.3 68 2.9 - - - - - 1016.1 1016.3 25.2
26/03:30pm 14.2 - 8.8 70 2.8 - - - - - 1015.9 - 25.2
26/03:00pm 13.3 - 9.4 77 2.0 - - - - - 1015.5 1015.7 25.2
26/02:30pm 13.2 - 11.4 89 1.0 - - - - - 1015.3 - 25.2
26/02:00pm 12.6 - 11.2 91 0.7 - - - - - 1015.2 1015.4 25.2
26/01:30pm 12.6 - 11.3 92 0.7 - - - - - 1014.9 - 24.2
26/01:00pm 12.5 - 11.2 92 0.7 - - - - - 1014.9 1015.1 23.8
26/12:30pm 12.9 - 11.8 93 0.6 - - - - - 1014.6 - 22.4
26/12:00pm 12.9 - 11.8 93 0.6 - - - - - 1014.5 1014.7 20.6
26/11:30am 13.2 - 12.1 93 0.6 - - - - - 1014.7 - 18.2
26/11:00am 13.4 - 12.3 93 0.6 - - - - - 1014.4 1014.6 17.0
26/10:30am 14.1 - 12.8 92 0.7 - - - - - 1014.1 - 15.0
26/10:00am 14.4 - 13.1 92 0.7 - - - - - 1013.3 1013.5 4.6
26/09:30am 14.3 - 12.9 91 0.8 - - - - - 1013.8 - 4.0
26/09:00am 14.7 - 12.9 89 1.0 - - - - - 1013.4 1013.6 11.4
26/08:30am 14.4 - 12.8 90 0.9 - - - - - 1013.3 - 11.4
26/08:00am 14.4 - 12.4 88 1.1 - - - - - 1013.5 1013.7 11.2
26/07:30am 14.0 - 12.2 89 1.0 - - - - - 1013.6 - 11.2
26/07:00am 13.7 - 12.1 90 0.9 - - - - - 1013.6 1013.8 11.2
26/06:30am 13.6 - 12.0 90 0.9 - - - - - 1013.5 - 11.2
26/06:00am 13.7 - 12.1 90 0.9 - - - - - 1013.3 1013.5 11.2
26/05:30am 13.7 - 12.1 90 0.9 - - - - - 1013.1 - 11.0
26/05:00am 13.3 - 11.9 91 0.8 - - - - - 1013.1 1013.3 11.0
26/04:30am 13.3 - 11.9 91 0.8 - - - - - 1013.5 - 8.6
26/04:00am 13.4 - 12.0 91 0.8 - - - - - 1013.6 1013.8 8.2
26/03:30am 13.6 - 11.8 89 1.0 - - - - - 1014.0 - 6.8
26/03:00am 14.1 - 11.6 85 1.4 - - - - - 1014.0 1014.2 5.4
26/02:30am 14.1 - 11.3 83 1.5 - - - - - 1014.0 - 5.2
26/02:00am 14.1 - 11.4 84 1.5 - - - - - 1014.4 1014.6 5.2
26/01:30am 14.4 - 10.4 77 2.1 - - - - - 1014.4 - 5.2
26/01:00am 14.7 - 10.5 76 2.2 - - - - - 1014.5 1014.7 5.2
26/12:30am 14.2 - 11.9 86 1.3 - - - - - 1014.7 - 5.2
26/12:00am 14.2 - 11.7 85 1.4 - - - - - 1015.3 1015.5 5.2
 
Date/Time
WST
Temp
°C
App
Temp
°C
Dew
Point
Rel
Hum
%
Delta-T
°C
Wind Press
QNH
hPa
Press
MSL
hPa
Rain
since 9 am
mm
Dir
 
Spd
km/h
Gust
km/h
Spd
kts
Gust
kts
25/11:30pm 14.2 - 12.1 87 1.2 - - - - - 1015.5 - 5.2
25/11:00pm 14.0 - 12.4 90 0.9 - - - - - 1016.1 1016.3 5.2
25/10:30pm 13.6 - 12.2 91 0.8 - - - - - 1016.4 - 4.8
25/10:00pm 14.0 - 12.2 89 1.0 - - - - - 1016.6 1016.8 4.6
25/09:30pm 13.9 - 11.9 88 1.1 - - - - - 1016.6 - 4.4
25/09:00pm 13.9 - 12.3 90 0.9 - - - - - 1017.1 1017.3 4.4
25/08:30pm 14.1 - 12.5 90 0.9 - - - - - 1017.0 - 3.6
25/08:00pm 13.9 - 12.5 91 0.8 - - - - - 1016.9 1017.1 3.6
25/07:30pm 13.6 - 12.2 91 0.8 - - - - - 1017.0 - 3.6
25/07:00pm 13.4 - 12.1 92 0.7 - - - - - 1017.2 1017.4 2.6
25/06:30pm 13.6 - 12.0 90 0.9 - - - - - 1017.0 - 2.0

Other Formats:

Comma delimited format used in spreadsheet applications
http://www.bom.gov.au/fwo/IDW60801/IDW60801.94620.axf

JavaScript Object Notation format (JSON) in row-major order
http://www.bom.gov.au/fwo/IDW60801/IDW60801.94620.json